Detalii statie MOLDOVA TIGANASI [00001D08]

Toti senzorii

Date Temperatura solului [C]Precipitatii [mm]Voltaj baterie [mV]Leaf Wetness [Min]HC Air temperature [C]HC Relative humidity [%]Punctul de roua [C]
medieminmaxsumaultimatimpmedieminmaxmediemediemin
2018-08-12 11:00:00 20.6 20.2 21 0 7352 25.69 24.73 27.41 59.12 16.9 16.4
2018-08-12 12:00:00 21.2 20.9 21.6 0 7352 27.36 26.29 28.24 57.37 17.9 17
2018-08-12 13:00:00 21.9 21.5 22.4 0 7342 28.76 28.08 29.45 53.41 18.1 17.2
2018-08-12 14:00:00 22.5 22.4 22.7 0 7342 29.55 28.95 30.21 51.5 18.2 17.1
2018-08-12 15:00:00 22.7 22.7 22.9 0 7342 30.38 29.59 31.12 49 18.2 16.6
2018-08-12 16:00:00 22.8 22.7 22.9 0 7342 29.95 29.48 30.39 46.79 17.1 16.2
2018-08-12 17:00:00 22.6 22.5 22.8 0 7342 29.5 28.95 30.23 46.53 16.6 15.6
2018-08-12 18:00:00 22.4 22.2 22.6 0 7332 28.95 28.67 29.37 48.07 16.6 16.1
2018-08-12 19:00:00 22.1 21.9 22.4 0 7158 25.95 24.29 28.14 61.33 17.6 16.1
2018-08-12 20:00:00 21.7 21.5 22.1 0 7060 22.38 21.21 23.81 78.09 18.2 17.5
2018-08-12 21:00:00 21.3 21 21.6 0 7030 21.06 20.84 21.34 71.82 15.5 14.2
2018-08-12 22:00:00 21 20.8 21.3 0 7000 20.2 19.38 20.93 70.41 14.4 14
2018-08-12 23:00:00 20.6 20.4 20.8 0 6982 18.79 18.08 19.47 81.12 15.3 14.4
2018-08-13 00:00:00 20.3 20.1 20.5 0 6972 17.75 17.36 18.26 91.78 16.2 15.9
2018-08-13 01:00:00 20.2 20.1 20.3 0 6962 17.99 17.44 18.84 94.61 16.9 16.6
2018-08-13 02:00:00 19.9 19.8 20.1 0 6962 16.89 16.5 17.68 99.47 16.7 16.5
2018-08-13 03:00:00 19.7 19.7 19.9 0 6952 16.41 15.96 16.8 100 16.3 15.9
2018-08-13 04:00:00 19.5 19.4 19.7 0 6932 15.8 15.55 16.06 100 15.7 15.5
2018-08-13 05:00:00 19.3 19.1 19.5 0 6942 15.59 15.28 15.8 100 15.5 15.2
2018-08-13 06:00:00 19.1 19 19.2 0 6952 16.15 15.49 17.12 100 16.1 15.4
2018-08-13 07:00:00 19.1 19 19.3 0 7138 18.67 17.46 19.63 100 18.6 17.4
2018-08-13 08:00:00 19.4 19.2 19.6 0 7352 21.33 19.78 22.63 92.09 19.8 19.6
2018-08-13 09:00:00 19.8 19.7 20.1 0 7352 24.49 23.09 25.92 79.56 20.5 19.8
2018-08-13 10:00:00 20.5 20.2 21 0 7352 26.92 25.58 28.05 70.2 20.8 20.3
2018-08-13 11:00:00 21.4 21 22 0 7342 29.47 28.34 30.27 60.65 20.8 20.2
2018-08-13 12:00:00 22.2 21.9 22.5 0 7342 30.61 30.12 31.41 55.23 20.3 19.5
2018-08-13 13:00:00 22.8 22.5 23.2 0 7342 31.84 31.22 32.37 51.19 20.2 19.6
2018-08-13 14:00:00 23.4 23.3 23.7 0 7352 32.09 31.74 32.39 47.42 19.2 18.8
2018-08-13 15:00:00 23.5 23.5 23.8 0 7342 32.55 32.02 33 47.49 19.7 19
2018-08-13 16:00:00 23.6 23.4 23.7 0 7342 32.23 31.07 32.6 46 18.9 18.5
2018-08-13 17:00:00 23.4 23.3 23.7 0 7342 31.78 31.37 32.18 45.27 18.2 17.6
2018-08-13 18:00:00 23.2 22.9 23.3 0 7274 30.59 29.67 31.29 47.78 18 17.7
2018-08-13 19:00:00 22.9 22.8 23.1 0 7158 27.66 25.86 29.69 59.53 18.8 18.1
2018-08-13 20:00:00 22.6 22.3 22.9 0 7060 24.56 23.76 25.52 72.27 19 18.7
2018-08-13 21:00:00 22.2 22 22.5 0 7020 23.05 22.37 23.69 75.79 18.3 18
2018-08-13 22:00:00 21.8 21.6 22.1 0 7000 21.97 21.69 22.63 78.02 17.8 17.5
2018-08-13 23:00:00 21.5 21.3 21.7 0 6982 20.83 19.88 21.96 80.06 17 16.4
2018-08-14 00:00:00 21.2 21 21.5 0 6972 20.36 19.82 20.72 77.11 16 15.7
2018-08-14 01:00:00 20.8 20.7 21.1 0 6962 18.99 18.57 19.7 83.48 15.9 15.7
2018-08-14 02:00:00 20.5 20.4 20.8 0 6962 18.73 17.9 19.97 79.95 14.9 13.8
2018-08-14 03:00:00 20.2 20.1 20.4 0 6952 19.09 18.02 19.96 72.9 13.9 13.6
2018-08-14 04:00:00 20 19.8 20.1 0 6942 17.5 16.73 18.94 81.82 14.2 14
2018-08-14 05:00:00 19.7 19.5 19.9 0 6932 16.75 16.4 17.04 85.66 14.2 13.9
2018-08-14 06:00:00 19.4 19.3 19.6 0 6952 17.39 16.45 18.49 81.82 14.1 14
2018-08-14 07:00:00 19.4 19.4 19.6 0 7128 20.38 18.63 21.93 71.98 14.9 14.5
2018-08-14 08:00:00 19.6 19.5 19.9 0 7342 22.98 22.08 24.15 64.23 15.7 14.9
2018-08-14 09:00:00 20.1 19.9 20.4 0 7352 25.32 24.33 26.24 58.31 16.3 15.5
2018-08-14 10:00:00 20.7 20.4 21 0 7352 28.29 26.34 29.64 51.55 17.1 16.5